X  Sluiten METAR luchtvaart weer gegevens      EHAM Amsterdam Airport Schiphol
Temperatuur
6°C Temperatuur
4°C Dauwpunt
87% Vochtigheid



Wind
23 KM/U
14 MPH
6 M/S
12 KTS



330°
NNW
Huidig weer

Lichte Buien, Regen Lichte Buien, Regen
Luchtdruk 1010.84 (hPa) - 29.85 (inHg)
Zicht 5.6 (mijl) - 9 (km)
Vliegveld
Vliegveld code EHAM

Locatie : Amsterdam Airport Schiphol
Afstand: 20 (km)

Metar:
EHAM 170225Z 33012KT 9000 -SHRA FEW017 SCT020CB BKN032 06/04 Q1011 BECMG 9999 NSW

Tijd: 17-04-2024 02:25 CEST